Doraville, GA

11:36 AM EDT on October 24, 2014 (GMT -0400)
Hyde Manor | Change Station
CLOSE
Current Station
Personal Weather Station
Location: Norcross, GA
Elevation: 1001 ft
Nearby Weather Stations

Elev 1001 ft 33.90 °N, 84.22 °W | Updated 6 minutes ago

Clear
Clear
62.2 °F
Feels Like 62.2 °F
N
0.0
Wind Variable Wind from ENE
Gusts 0.0 mph

Today
High -- | Low -- °F
--% Chance of Precip.
Yesterday
High -- | Low -- °F
Precip. -- in
7:49 AM 6:52 PM
New Moon, 1% visible
Pressure 30.08 in
Visibility 8.0 miles
Clouds Clear
Dew Point 52 °F
Humidity 68%
Rainfall 0.00 in
Snow Depth Not available.
UV 4 out of 12
Pollen 2.50 out of 12
Ozone Good
PM2.5 Moderate
Flu Activity Sporadic
METAR KPDK 241453Z 00000KT 8SM CLR 16/08 A3008 RMK AO2 SLP184 T01610083 50007

More Conditions Fewer Conditions

Pressure 30.08 in
Visibility 8.0 miles
Clouds Clear
Dew Point 52 °F
Humidity 68%
Rainfall 0.00 in
Snow Depth Not available.
UV 4 out of 12
Pollen 2.50 out of 12
Ozone Good
PM2.5 Moderate
Flu Activity Sporadic
METAR KPDK 241453Z 00000KT 8SM CLR 16/08 A3008 RMK AO2 SLP184 T01610083 50007

More Conditions Fewer Conditions

10-Day Weather Forecast

Almanac

Astronomy

Oct. 24, 2014 Rise Set
Actual Time 7:49 AM EDT 6:52 PM EDT
Civil Twilight 7:23 AM EDT 7:17 PM EDT
Nautical Twilight 6:54 AM EDT 7:47 PM EDT
Astronomical Twilight 6:25 AM EDT 8:16 PM EDT
Moon 8:26 AM EDT 7:34 PM EDT
Length of Visible Light 11h 54m
Length of Day
11h 03m
Tomorrow will be 1m 57s shorter.
New Moon, 1% of the Moon is Illuminated
Today
New Moon
Oct 30
First Quarter
Nov 6
Full
Nov 14
Last Quarter
Nov 22
New

Today's Extremes

State Highs State Lows

Community

WunderPhotos

Upload Photos

1,764,589 photos uploaded!

WunderBlogs® & News

Nearby

Air Quality

  Air Quality AQ Index Pollutant
Yesterday Good
PM10
Yesterday Good
OZONE
Current Moderate
PM2.5
Current Good
OZONE
Friday Good
OZONE
Friday Good
PM2.5

Snow Depth

Station Depth Elevation
No new snow has been reported.

Earthquake Activity

City Distance Mag. Time & Date
No recent earthquake activity has been reported nearby.
Minimum magnitude displayed is 2.5.

Coastal Water Temperatures

Place Temperature
No Stations Reporting

Nearby Weather Stations